createdAt,value
2023-06-02T00:00:49.042Z,14.50
2023-06-02T00:03:38.501Z,15.30
2023-06-02T00:08:40.221Z,15.40
2023-06-02T00:11:10.143Z,14.80
2023-06-02T00:13:39.570Z,16.60
2023-06-02T00:16:08.261Z,13.60
2023-06-02T00:18:41.130Z,15.00
2023-06-02T00:21:09.408Z,18.40
2023-06-02T00:23:37.516Z,15.90
2023-06-02T00:26:05.841Z,16.50
2023-06-02T00:28:34.254Z,15.50
2023-06-02T00:31:02.430Z,19.80
2023-06-02T00:33:30.578Z,24.00
2023-06-02T00:35:58.992Z,14.30
2023-06-02T00:38:28.277Z,13.90
2023-06-02T00:40:57.091Z,17.20
2023-06-02T00:43:25.389Z,14.70
2023-06-02T00:45:56.868Z,16.70
2023-06-02T00:48:25.430Z,16.50
2023-06-02T00:50:53.794Z,20.00
2023-06-02T00:53:22.064Z,17.90
2023-06-02T00:55:53.389Z,16.60
2023-06-02T00:58:22.468Z,17.10
2023-06-02T01:00:51.093Z,17.10
2023-06-02T01:03:22.549Z,18.50
2023-06-02T01:05:56.933Z,18.60
2023-06-02T01:08:26.163Z,17.10
2023-06-02T01:10:55.497Z,16.40
2023-06-02T01:13:24.778Z,19.90
2023-06-02T01:20:58.731Z,21.00
2023-06-02T01:23:38.060Z,19.00
2023-06-02T01:26:06.618Z,19.10
2023-06-02T01:28:34.905Z,20.20
2023-06-02T01:31:27.334Z,16.90
2023-06-02T01:34:18.620Z,15.20
2023-06-02T01:36:50.409Z,20.50
2023-06-02T01:39:19.822Z,18.30
2023-06-02T01:41:50.835Z,19.70
2023-06-02T01:44:20.871Z,17.80
2023-06-02T01:46:50.032Z,20.90
2023-06-02T01:49:19.002Z,20.70
2023-06-02T01:51:47.700Z,19.30
2023-06-02T01:54:16.700Z,21.80
2023-06-02T01:56:44.877Z,19.80
2023-06-02T01:59:14.175Z,23.00
2023-06-02T02:01:43.617Z,21.00
2023-06-02T02:04:12.380Z,21.60
2023-06-02T02:06:41.087Z,22.30
2023-06-02T02:09:09.164Z,22.40
2023-06-02T02:11:37.465Z,24.70
2023-06-02T02:14:06.124Z,24.10
2023-06-02T02:16:34.897Z,25.00
2023-06-02T02:19:03.556Z,26.30
2023-06-02T02:21:31.728Z,21.70
2023-06-02T02:23:59.846Z,23.20
2023-06-02T02:26:29.200Z,20.70
2023-06-02T02:28:57.348Z,25.10
2023-06-02T02:31:25.759Z,71.90
2023-06-02T02:33:53.946Z,71.20
2023-06-02T02:36:23.298Z,74.50
2023-06-02T02:38:51.477Z,75.90
2023-06-02T02:41:21.213Z,88.30
2023-06-02T02:43:49.491Z,90.70
2023-06-02T02:46:21.316Z,84.00
2023-06-02T02:48:50.203Z,79.80
2023-06-02T02:51:18.512Z,76.60
2023-06-02T02:53:46.820Z,80.70
2023-06-02T02:56:16.317Z,67.80
2023-06-02T02:58:45.875Z,55.80
2023-06-02T03:01:17.108Z,40.10
2023-06-02T03:03:45.975Z,41.90
2023-06-02T03:06:19.290Z,48.80
2023-06-02T03:08:48.203Z,39.50
2023-06-02T03:11:16.394Z,43.80
2023-06-02T03:13:44.483Z,38.90
2023-06-02T03:16:14.017Z,33.90
2023-06-02T03:18:42.173Z,34.20
2023-06-02T03:21:11.227Z,39.40
2023-06-02T03:23:41.927Z,33.80
2023-06-02T03:26:13.063Z,36.60
2023-06-02T03:28:44.008Z,33.90
2023-06-02T03:31:12.772Z,37.70
2023-06-02T03:33:41.061Z,41.90
2023-06-02T03:36:10.936Z,37.90
2023-06-02T03:38:40.646Z,39.70
2023-06-02T03:41:08.719Z,35.90
2023-06-02T03:43:36.965Z,26.80
2023-06-02T03:46:05.339Z,33.90
2023-06-02T03:48:34.224Z,35.00
2023-06-02T03:51:04.399Z,31.40
2023-06-02T03:53:32.616Z,39.40
2023-06-02T03:56:01.031Z,34.10
2023-06-02T03:58:29.395Z,38.50
2023-06-02T04:00:59.452Z,36.30
2023-06-02T04:03:27.603Z,37.90
2023-06-02T04:05:56.250Z,41.70
2023-06-02T04:08:25.727Z,40.50
2023-06-02T04:10:54.135Z,40.80
2023-06-02T04:13:22.776Z,39.50
2023-06-02T04:15:50.922Z,36.80
2023-06-02T04:18:19.150Z,38.30
2023-06-02T04:20:48.505Z,36.20
2023-06-02T04:23:16.672Z,36.40
2023-06-02T04:25:45.060Z,31.30
2023-06-02T04:30:42.654Z,33.10
2023-06-02T04:33:11.117Z,28.30
2023-06-02T04:35:39.252Z,30.60
2023-06-02T04:38:09.094Z,30.20
2023-06-02T04:40:40.566Z,28.30
2023-06-02T04:43:10.196Z,23.90
2023-06-02T04:45:44.782Z,28.20
2023-06-02T04:48:14.708Z,26.60
2023-06-02T04:50:43.063Z,24.50
2023-06-02T04:53:12.645Z,22.10
2023-06-02T04:58:09.670Z,19.80
2023-06-02T05:00:38.793Z,14.20
2023-06-02T05:03:08.644Z,14.90
2023-06-02T05:05:37.189Z,16.00
2023-06-02T05:08:07.363Z,17.60
2023-06-02T05:10:35.514Z,16.30
2023-06-02T05:13:04.836Z,18.00
2023-06-02T05:15:33.656Z,17.50
2023-06-02T05:18:02.205Z,13.60
2023-06-02T05:20:30.654Z,11.80
2023-06-02T05:22:58.777Z,13.40
2023-06-02T05:25:26.905Z,16.30
2023-06-02T05:27:55.370Z,15.10
2023-06-02T05:30:24.036Z,18.70
2023-06-02T05:32:52.346Z,16.70
2023-06-02T05:35:21.322Z,15.30
2023-06-02T05:37:49.514Z,14.90
2023-06-02T05:40:19.069Z,14.80
2023-06-02T05:45:17.988Z,17.70
2023-06-02T05:47:49.855Z,15.90
2023-06-02T05:50:18.949Z,15.30
2023-06-02T05:52:47.190Z,16.00
2023-06-02T05:55:15.504Z,14.50
2023-06-02T05:57:44.146Z,13.90
2023-06-02T06:00:13.786Z,13.60
2023-06-02T06:02:42.286Z,16.60
2023-06-02T06:05:12.560Z,18.20
2023-06-02T06:07:41.097Z,21.90
2023-06-02T06:10:09.732Z,19.90
2023-06-02T06:12:38.179Z,15.40
2023-06-02T06:15:06.862Z,21.60
2023-06-02T06:17:35.126Z,31.90
2023-06-02T06:20:03.570Z,21.80
2023-06-02T06:22:32.752Z,22.60
2023-06-02T06:25:00.966Z,26.30
2023-06-02T06:27:29.971Z,16.90
2023-06-02T06:29:58.752Z,15.20
2023-06-02T06:34:55.644Z,9.50
2023-06-02T06:37:24.146Z,11.10
2023-06-02T06:39:52.271Z,13.40
2023-06-02T06:42:20.434Z,10.40
2023-06-02T06:44:58.427Z,11.80
2023-06-02T06:47:26.875Z,9.30
2023-06-02T06:49:56.224Z,11.00
2023-06-02T06:52:24.381Z,10.10
2023-06-02T06:54:52.489Z,10.00
2023-06-02T06:57:21.464Z,10.90
2023-06-02T06:59:49.693Z,10.80
2023-06-02T07:02:17.790Z,15.00
2023-06-02T07:04:46.868Z,18.50
2023-06-02T07:09:43.912Z,11.20
2023-06-02T07:12:12.016Z,14.40
2023-06-02T07:14:40.127Z,12.50
2023-06-02T07:17:09.341Z,14.80
2023-06-02T07:19:37.471Z,11.80
2023-06-02T07:22:06.189Z,13.20
2023-06-02T07:24:34.641Z,13.60
2023-06-02T07:27:04.628Z,13.90
2023-06-02T07:29:32.863Z,16.50
2023-06-02T07:32:01.050Z,16.20
2023-06-02T07:34:29.256Z,16.60
2023-06-02T07:36:57.730Z,12.70
2023-06-02T07:39:26.012Z,16.20
2023-06-02T07:41:54.153Z,13.40
2023-06-02T07:44:22.310Z,14.30
2023-06-02T07:46:50.753Z,15.70
2023-06-02T07:51:47.220Z,12.50
2023-06-02T07:54:15.822Z,12.60
2023-06-02T07:56:44.019Z,16.20
2023-06-02T07:59:13.530Z,7.90
2023-06-02T08:01:42.020Z,8.10
2023-06-02T08:04:10.389Z,7.40
2023-06-02T08:06:39.061Z,8.80
2023-06-02T08:09:07.665Z,10.60
2023-06-02T08:11:36.605Z,12.60
2023-06-02T08:14:05.034Z,11.70
2023-06-02T08:16:41.597Z,8.00
2023-06-02T08:19:22.174Z,6.90
2023-06-02T08:21:50.430Z,6.20
2023-06-02T08:24:22.132Z,10.00
2023-06-02T08:26:52.274Z,7.60
2023-06-02T08:29:21.621Z,6.00
2023-06-02T08:31:49.850Z,9.10
2023-06-02T08:34:22.001Z,8.40
2023-06-02T08:36:58.814Z,8.30
2023-06-02T08:39:31.111Z,8.10
2023-06-02T08:42:03.232Z,9.60
2023-06-02T08:44:31.725Z,10.50
2023-06-02T08:47:02.482Z,14.90
2023-06-02T08:49:34.473Z,8.40
2023-06-02T08:52:09.604Z,6.50
2023-06-02T08:54:39.734Z,6.50
2023-06-02T08:57:09.184Z,10.80
2023-06-02T08:59:37.800Z,7.90
2023-06-02T09:02:06.212Z,13.40
2023-06-02T09:04:34.707Z,8.10
2023-06-02T09:09:48.271Z,6.70
2023-06-02T09:12:18.167Z,6.60
2023-06-02T09:15:11.143Z,7.40
2023-06-02T09:20:12.575Z,8.80
2023-06-02T09:22:58.545Z,11.20
2023-06-02T09:25:31.116Z,7.90
2023-06-02T09:28:00.924Z,9.10
2023-06-02T09:30:30.214Z,7.90
2023-06-02T09:33:13.779Z,10.50
2023-06-02T09:35:44.146Z,9.30
2023-06-02T09:38:18.667Z,10.80
2023-06-02T09:40:46.783Z,7.00
2023-06-02T09:43:17.340Z,8.10
2023-06-02T09:45:55.669Z,6.80
2023-06-02T09:48:24.632Z,8.60
2023-06-02T09:50:52.999Z,6.30
2023-06-02T09:53:23.769Z,9.20
2023-06-02T09:55:52.232Z,6.10
2023-06-02T09:58:20.723Z,6.00
2023-06-02T10:00:49.011Z,6.00
2023-06-02T10:03:17.469Z,6.80
2023-06-02T10:06:04.751Z,4.60
2023-06-02T10:09:12.258Z,7.40
2023-06-02T10:12:24.937Z,6.30
2023-06-02T10:15:28.453Z,8.20
2023-06-02T10:18:00.228Z,5.80
2023-06-02T10:20:36.879Z,7.20
2023-06-02T10:23:40.528Z,7.20
2023-06-02T10:26:08.660Z,7.30
2023-06-02T10:28:37.732Z,9.30
2023-06-02T10:31:11.022Z,5.40
2023-06-02T10:33:47.706Z,9.50
2023-06-02T10:36:19.285Z,7.90
2023-06-02T10:38:47.894Z,11.90
2023-06-02T10:44:20.107Z,6.50
2023-06-02T10:46:48.474Z,6.70
2023-06-02T10:49:55.009Z,5.30
2023-06-02T10:52:23.690Z,6.30
2023-06-02T10:55:13.785Z,6.30
2023-06-02T10:58:00.201Z,5.30
2023-06-02T11:00:37.892Z,5.10
2023-06-02T11:03:28.999Z,6.90
2023-06-02T11:06:31.120Z,7.70
2023-06-02T11:09:43.916Z,7.50
2023-06-02T11:12:13.033Z,8.60
2023-06-02T11:15:03.847Z,6.60
2023-06-02T11:17:33.980Z,8.00
2023-06-02T11:20:07.080Z,7.30
2023-06-02T11:22:37.813Z,8.10
2023-06-02T11:25:06.960Z,9.10
2023-06-02T11:27:47.066Z,6.30
2023-06-02T11:30:20.186Z,7.30
2023-06-02T11:32:53.455Z,8.90
2023-06-02T11:35:27.276Z,5.00
2023-06-02T11:38:21.808Z,6.10
2023-06-02T11:40:49.897Z,6.10
2023-06-02T11:43:22.433Z,7.00
2023-06-02T11:45:50.605Z,9.40
2023-06-02T11:48:23.921Z,7.30
2023-06-02T11:50:55.579Z,6.20
2023-06-02T11:53:24.549Z,8.60
2023-06-02T11:55:53.672Z,8.90
2023-06-02T11:58:24.480Z,6.40
2023-06-02T12:00:53.664Z,5.10
2023-06-02T12:03:26.507Z,6.40
2023-06-02T12:05:57.244Z,9.80
2023-06-02T12:08:27.292Z,7.50
2023-06-02T12:10:59.027Z,10.80
2023-06-02T12:13:33.040Z,6.80
2023-06-02T12:16:25.965Z,6.10
2023-06-02T12:18:57.484Z,9.90
2023-06-02T12:21:29.612Z,8.90
2023-06-02T12:24:00.233Z,7.70
2023-06-02T12:26:28.580Z,8.20
2023-06-02T12:28:58.591Z,5.20
2023-06-02T12:31:26.937Z,6.00
2023-06-02T12:33:55.252Z,8.30
2023-06-02T12:36:23.528Z,4.60
2023-06-02T12:38:51.652Z,7.90
2023-06-02T12:41:19.874Z,4.20
2023-06-02T12:43:48.743Z,7.30
2023-06-02T12:46:18.344Z,5.50
2023-06-02T12:48:48.860Z,6.00
2023-06-02T12:51:17.295Z,7.50
2023-06-02T12:53:46.475Z,6.50
2023-06-02T12:56:15.545Z,7.70
2023-06-02T12:58:44.095Z,5.80
2023-06-02T13:03:41.125Z,7.50
2023-06-02T13:06:11.339Z,8.60
2023-06-02T13:08:40.142Z,5.80
2023-06-02T13:11:08.872Z,7.30
2023-06-02T13:13:37.703Z,7.00
2023-06-02T13:16:06.423Z,7.50
2023-06-02T13:18:35.032Z,7.20
2023-06-02T13:21:03.350Z,17.10
2023-06-02T13:26:00.107Z,34.20
2023-06-02T13:31:02.520Z,10.60
2023-06-02T13:33:31.924Z,5.60
2023-06-02T13:36:00.083Z,7.00
2023-06-02T13:38:28.217Z,7.20
2023-06-02T13:40:59.273Z,11.00
2023-06-02T13:43:27.978Z,7.70
2023-06-02T13:48:24.663Z,7.10
2023-06-02T13:50:52.848Z,7.40
2023-06-02T13:53:21.061Z,6.40
2023-06-02T13:55:49.270Z,7.90
2023-06-02T13:58:17.364Z,8.30
2023-06-02T14:00:46.842Z,5.70
2023-06-02T14:03:15.292Z,7.00
2023-06-02T14:05:47.262Z,8.60
2023-06-02T14:08:17.774Z,8.40
2023-06-02T14:10:46.235Z,7.90
2023-06-02T14:13:14.780Z,11.40
2023-06-02T14:15:43.098Z,7.20
2023-06-02T14:18:11.479Z,8.80
2023-06-02T14:20:40.296Z,7.40
2023-06-02T14:23:08.411Z,6.40
2023-06-02T14:25:36.760Z,9.90
2023-06-02T14:28:05.088Z,7.00
2023-06-02T14:30:33.964Z,7.30
2023-06-02T14:35:30.469Z,9.30
2023-06-02T14:37:58.848Z,8.10
2023-06-02T14:40:28.212Z,9.10
2023-06-02T14:42:56.385Z,7.60
2023-06-02T14:45:24.442Z,8.20
2023-06-02T14:47:52.878Z,6.70
2023-06-02T14:50:21.113Z,6.50
2023-06-02T14:52:49.262Z,5.70
2023-06-02T14:55:18.185Z,8.50
2023-06-02T14:57:46.506Z,5.00
2023-06-02T15:00:14.981Z,9.00
2023-06-02T15:02:43.244Z,11.40
2023-06-02T15:05:11.688Z,22.70
2023-06-02T15:07:39.946Z,30.90
2023-06-02T15:10:08.873Z,5.00
2023-06-02T15:15:05.797Z,6.10
2023-06-02T15:20:02.456Z,11.00
2023-06-02T15:22:31.756Z,10.10
2023-06-02T15:25:01.560Z,6.70
2023-06-02T15:27:30.752Z,7.20
2023-06-02T15:29:59.296Z,5.70
2023-06-02T15:32:27.463Z,10.50
2023-06-02T15:34:55.617Z,6.70
2023-06-02T15:37:23.889Z,8.60
2023-06-02T15:39:53.620Z,8.30
2023-06-02T15:42:21.695Z,5.00
2023-06-02T15:44:49.987Z,6.90
2023-06-02T15:47:18.244Z,7.30
2023-06-02T15:49:46.355Z,6.20
2023-06-02T15:52:14.556Z,6.80
2023-06-02T15:54:42.662Z,5.40
2023-06-02T15:57:11.034Z,4.90
2023-06-02T15:59:43.441Z,4.80
2023-06-02T16:02:11.606Z,7.20
2023-06-02T16:04:40.850Z,6.20
2023-06-02T16:07:08.923Z,5.20
2023-06-02T16:09:37.163Z,10.50
2023-06-02T16:12:05.970Z,6.10
2023-06-02T16:14:34.112Z,6.50
2023-06-02T16:17:02.886Z,7.80
2023-06-02T16:22:00.368Z,13.20
2023-06-02T16:24:28.643Z,7.60
2023-06-02T16:26:56.812Z,5.40
2023-06-02T16:29:25.090Z,6.90
2023-06-02T16:31:53.588Z,7.30
2023-06-02T16:34:21.730Z,13.40
2023-06-02T16:36:51.533Z,15.80
2023-06-02T16:39:19.921Z,9.90
2023-06-02T16:41:48.063Z,8.80
2023-06-02T16:44:16.970Z,8.80
2023-06-02T16:46:45.344Z,7.50
2023-06-02T16:49:14.950Z,8.00
2023-06-02T16:51:43.081Z,6.80
2023-06-02T16:54:13.069Z,9.70
2023-06-02T16:56:41.653Z,9.00
2023-06-02T16:59:10.003Z,9.00
2023-06-02T17:01:38.273Z,7.30
2023-06-02T17:04:06.825Z,8.00
2023-06-02T17:06:36.768Z,6.90
2023-06-02T17:09:05.404Z,9.00
2023-06-02T17:11:33.599Z,6.20
2023-06-02T17:14:01.783Z,6.00
2023-06-02T17:16:30.217Z,7.60
2023-06-02T17:18:58.949Z,7.10
2023-06-02T17:21:27.956Z,9.10
2023-06-02T17:23:57.395Z,9.50
2023-06-02T17:26:26.567Z,7.90
2023-06-02T17:28:54.731Z,7.80
2023-06-02T17:31:23.071Z,7.00
2023-06-02T17:33:51.539Z,4.80
2023-06-02T17:36:19.706Z,6.50
2023-06-02T17:38:47.864Z,6.80
2023-06-02T17:41:17.353Z,8.20
2023-06-02T17:43:47.237Z,7.50
2023-06-02T17:46:19.474Z,8.90
2023-06-02T17:48:47.811Z,8.60
2023-06-02T17:51:16.383Z,7.00
2023-06-02T17:53:44.645Z,7.90
2023-06-02T17:56:13.030Z,6.80
2023-06-02T17:58:41.738Z,6.80
2023-06-02T18:01:11.318Z,5.80
2023-06-02T18:03:40.041Z,7.50
2023-06-02T18:06:08.508Z,7.40
2023-06-02T18:08:37.497Z,8.40
2023-06-02T18:11:06.164Z,7.80
2023-06-02T18:13:34.777Z,8.40
2023-06-02T18:16:02.887Z,6.40
2023-06-02T18:18:31.188Z,6.70
2023-06-02T18:20:59.576Z,8.60
2023-06-02T18:23:28.284Z,7.50
2023-06-02T18:25:58.387Z,9.10
2023-06-02T18:28:26.781Z,9.10
2023-06-02T18:30:54.891Z,14.10
2023-06-02T18:33:22.965Z,23.40
2023-06-02T18:35:51.282Z,22.70
2023-06-02T18:38:19.377Z,20.40
2023-06-02T18:40:47.488Z,17.90
2023-06-02T18:43:15.707Z,16.40
2023-06-02T18:45:43.863Z,8.40
2023-06-02T18:48:12.742Z,7.90
2023-06-02T18:50:41.602Z,11.00
2023-06-02T18:53:11.971Z,8.10
2023-06-02T18:55:40.116Z,7.40
2023-06-02T18:58:08.888Z,7.60
2023-06-02T19:00:40.457Z,7.00
2023-06-02T19:03:08.939Z,8.30
2023-06-02T19:05:37.523Z,10.20
2023-06-02T19:08:06.657Z,9.50
2023-06-02T19:13:03.017Z,7.80
2023-06-02T19:15:31.348Z,8.00
2023-06-02T19:18:01.806Z,5.60
2023-06-02T19:20:31.505Z,6.60
2023-06-02T19:22:59.953Z,5.30
2023-06-02T19:25:28.715Z,7.60
2023-06-02T19:27:57.105Z,8.00
2023-06-02T19:30:25.995Z,6.10
2023-06-02T19:32:54.237Z,8.00
2023-06-02T19:35:23.191Z,6.60
2023-06-02T19:37:51.433Z,8.10
2023-06-02T19:40:19.693Z,6.60
2023-06-02T19:42:47.922Z,8.00
2023-06-02T19:45:16.105Z,8.00
2023-06-02T19:47:44.326Z,7.20
2023-06-02T19:50:14.294Z,8.20
2023-06-02T19:52:42.815Z,5.90
2023-06-02T19:55:11.624Z,8.60
2023-06-02T19:57:41.315Z,9.90
2023-06-02T20:00:10.949Z,19.50
2023-06-02T20:02:39.514Z,21.00
2023-06-02T20:05:12.218Z,19.80
2023-06-02T20:07:41.926Z,9.70
2023-06-02T20:10:12.247Z,6.90
2023-06-02T20:12:40.605Z,11.60
2023-06-02T20:15:09.678Z,5.70
2023-06-02T20:17:37.799Z,8.30
2023-06-02T20:20:07.206Z,9.30
2023-06-02T20:22:35.596Z,7.80
2023-06-02T20:25:04.187Z,10.40
2023-06-02T20:27:32.258Z,11.30
2023-06-02T20:30:02.048Z,13.90
2023-06-02T20:32:31.111Z,8.20
2023-06-02T20:34:59.289Z,9.60
2023-06-02T20:37:27.472Z,10.20
2023-06-02T20:39:55.752Z,9.30
2023-06-02T20:42:23.923Z,7.00
2023-06-02T20:44:52.277Z,5.40
2023-06-02T20:47:20.905Z,7.60
2023-06-02T20:49:49.013Z,6.50
2023-06-02T20:52:17.128Z,8.40
2023-06-02T20:54:45.261Z,6.50
2023-06-02T20:57:13.362Z,5.70
2023-06-02T20:59:41.761Z,9.30
2023-06-02T21:02:11.219Z,9.00
2023-06-02T21:04:40.296Z,6.50
2023-06-02T21:07:08.437Z,7.30
2023-06-02T21:09:38.127Z,8.30
2023-06-02T21:12:06.851Z,7.20
2023-06-02T21:14:35.062Z,7.40
2023-06-02T21:17:03.379Z,8.60
2023-06-02T21:19:31.712Z,7.20
2023-06-02T21:21:59.922Z,9.30
2023-06-02T21:24:28.340Z,9.40
2023-06-02T21:26:57.716Z,8.50
2023-06-02T21:29:25.850Z,7.50
2023-06-02T21:31:53.993Z,7.10
2023-06-02T21:34:22.042Z,9.40
2023-06-02T21:36:50.337Z,7.10
2023-06-02T21:39:18.478Z,13.10
2023-06-02T21:41:48.984Z,12.40
2023-06-02T21:44:17.743Z,10.10
2023-06-02T21:46:46.006Z,10.90
2023-06-02T21:49:15.701Z,8.40
2023-06-02T21:51:45.343Z,9.80
2023-06-02T21:54:13.438Z,8.30
2023-06-02T21:56:41.654Z,8.50
2023-06-02T21:59:09.875Z,11.30
2023-06-02T22:01:37.989Z,17.30
2023-06-02T22:04:06.220Z,9.90
2023-06-02T22:06:34.390Z,9.80
2023-06-02T22:09:02.845Z,9.00
2023-06-02T22:11:31.128Z,12.80
2023-06-02T22:13:59.336Z,10.00
2023-06-02T22:16:27.633Z,12.60
2023-06-02T22:18:55.765Z,9.50
2023-06-02T22:21:41.701Z,12.20
2023-06-02T22:24:18.776Z,11.00
2023-06-02T22:26:55.168Z,7.90
2023-06-02T22:29:48.180Z,17.60
2023-06-02T22:32:16.317Z,10.70
2023-06-02T22:34:44.406Z,10.50
2023-06-02T22:37:12.514Z,12.00
2023-06-02T22:39:41.367Z,12.90
2023-06-02T22:42:09.723Z,11.80
2023-06-02T22:44:38.563Z,11.20
2023-06-02T22:47:07.219Z,9.90
2023-06-02T22:49:35.565Z,10.50
2023-06-02T22:52:03.732Z,9.00
2023-06-02T22:54:31.933Z,11.20
2023-06-02T22:56:59.981Z,13.20
2023-06-02T22:59:28.237Z,11.40
2023-06-02T23:01:56.318Z,8.90
2023-06-02T23:04:24.530Z,13.30
2023-06-02T23:06:52.590Z,12.10
2023-06-02T23:09:20.845Z,12.20
2023-06-02T23:11:49.777Z,9.70
2023-06-02T23:14:17.941Z,8.60
2023-06-02T23:16:48.724Z,11.40
2023-06-02T23:19:17.996Z,10.30
2023-06-02T23:21:46.144Z,9.80
2023-06-02T23:24:14.277Z,7.90
2023-06-02T23:26:42.366Z,9.90
2023-06-02T23:29:10.532Z,12.00
2023-06-02T23:31:38.910Z,13.10
2023-06-02T23:34:07.218Z,16.60
2023-06-02T23:36:35.780Z,13.30
2023-06-02T23:39:04.420Z,13.80
2023-06-02T23:41:32.612Z,11.50
2023-06-02T23:44:00.811Z,13.20
2023-06-02T23:46:29.889Z,12.60
2023-06-02T23:48:58.917Z,14.40
2023-06-02T23:51:27.025Z,13.00
2023-06-02T23:53:55.365Z,15.70
2023-06-02T23:56:23.421Z,14.40
2023-06-02T23:58:51.482Z,15.20
